sensor_id;sensor_type;location;lat;lon;timestamp;P1;durP1;ratioP1;P2;durP2;ratioP2
71753;SDS011;59593;51.716;7.016;2023-10-13T00:00:37;21.17;;;14.77;;
71753;SDS011;59593;51.716;7.016;2023-10-13T00:03:07;22.25;;;14.93;;
71753;SDS011;59593;51.716;7.016;2023-10-13T00:09:01;23.20;;;14.73;;
71753;SDS011;59593;51.716;7.016;2023-10-13T00:11:28;23.30;;;14.35;;
71753;SDS011;59593;51.716;7.016;2023-10-13T00:13:53;21.25;;;13.95;;
71753;SDS011;59593;51.716;7.016;2023-10-13T00:16:19;20.23;;;14.50;;
71753;SDS011;59593;51.716;7.016;2023-10-13T00:18:51;17.95;;;13.70;;
71753;SDS011;59593;51.716;7.016;2023-10-13T00:21:22;21.33;;;13.95;;
71753;SDS011;59593;51.716;7.016;2023-10-13T00:23:58;19.77;;;13.60;;
71753;SDS011;59593;51.716;7.016;2023-10-13T00:26:27;24.40;;;14.40;;
71753;SDS011;59593;51.716;7.016;2023-10-13T00:28:55;21.02;;;13.32;;
71753;SDS011;59593;51.716;7.016;2023-10-13T00:31:40;19.38;;;13.32;;
71753;SDS011;59593;51.716;7.016;2023-10-13T00:34:07;22.98;;;13.63;;
71753;SDS011;59593;51.716;7.016;2023-10-13T00:36:36;21.33;;;13.25;;
71753;SDS011;59593;51.716;7.016;2023-10-13T00:39:11;19.08;;;12.95;;
71753;SDS011;59593;51.716;7.016;2023-10-13T00:41:40;19.55;;;13.50;;
71753;SDS011;59593;51.716;7.016;2023-10-13T00:47:44;19.92;;;13.70;;
71753;SDS011;59593;51.716;7.016;2023-10-13T00:50:22;24.90;;;13.77;;
71753;SDS011;59593;51.716;7.016;2023-10-13T00:52:49;21.42;;;14.38;;
71753;SDS011;59593;51.716;7.016;2023-10-13T00:55:22;18.02;;;14.10;;
71753;SDS011;59593;51.716;7.016;2023-10-13T00:57:52;18.27;;;13.38;;
71753;SDS011;59593;51.716;7.016;2023-10-13T01:00:19;22.38;;;14.98;;
71753;SDS011;59593;51.716;7.016;2023-10-13T01:02:49;21.60;;;13.73;;
71753;SDS011;59593;51.716;7.016;2023-10-13T01:05:21;18.83;;;13.73;;
71753;SDS011;59593;51.716;7.016;2023-10-13T01:07:48;22.77;;;13.77;;
71753;SDS011;59593;51.716;7.016;2023-10-13T01:10:19;19.50;;;13.48;;
71753;SDS011;59593;51.716;7.016;2023-10-13T01:16:10;19.33;;;12.27;;
71753;SDS011;59593;51.716;7.016;2023-10-13T01:18:36;19.25;;;12.52;;
71753;SDS011;59593;51.716;7.016;2023-10-13T01:21:13;16.13;;;11.82;;
71753;SDS011;59593;51.716;7.016;2023-10-13T01:23:42;19.77;;;11.68;;
71753;SDS011;59593;51.716;7.016;2023-10-13T01:29:31;15.25;;;11.30;;
71753;SDS011;59593;51.716;7.016;2023-10-13T01:31:57;16.52;;;10.65;;
71753;SDS011;59593;51.716;7.016;2023-10-13T01:34:22;16.70;;;11.05;;
71753;SDS011;59593;51.716;7.016;2023-10-13T01:36:51;16.45;;;11.13;;
71753;SDS011;59593;51.716;7.016;2023-10-13T01:39:20;18.02;;;10.68;;
71753;SDS011;59593;51.716;7.016;2023-10-13T01:41:51;18.83;;;11.85;;
71753;SDS011;59593;51.716;7.016;2023-10-13T01:44:26;18.20;;;11.13;;
71753;SDS011;59593;51.716;7.016;2023-10-13T01:46:55;15.30;;;11.80;;
71753;SDS011;59593;51.716;7.016;2023-10-13T01:49:24;18.95;;;12.85;;
71753;SDS011;59593;51.716;7.016;2023-10-13T01:51:50;17.98;;;12.90;;
71753;SDS011;59593;51.716;7.016;2023-10-13T01:54:16;19.58;;;13.38;;
71753;SDS011;59593;51.716;7.016;2023-10-13T01:56:42;22.30;;;13.98;;
71753;SDS011;59593;51.716;7.016;2023-10-13T01:59:09;18.17;;;14.13;;
71753;SDS011;59593;51.716;7.016;2023-10-13T02:01:38;20.40;;;14.15;;
71753;SDS011;59593;51.716;7.016;2023-10-13T02:04:08;17.48;;;14.23;;
71753;SDS011;59593;51.716;7.016;2023-10-13T02:06:36;22.17;;;14.45;;
71753;SDS011;59593;51.716;7.016;2023-10-13T02:12:24;21.83;;;14.43;;
71753;SDS011;59593;51.716;7.016;2023-10-13T02:15:02;21.33;;;14.52;;
71753;SDS011;59593;51.716;7.016;2023-10-13T02:17:30;19.73;;;13.57;;
71753;SDS011;59593;51.716;7.016;2023-10-13T02:20:08;19.10;;;13.57;;
71753;SDS011;59593;51.716;7.016;2023-10-13T02:22:40;20.98;;;14.95;;
71753;SDS011;59593;51.716;7.016;2023-10-13T02:28:36;19.25;;;14.63;;
71753;SDS011;59593;51.716;7.016;2023-10-13T02:31:02;22.23;;;14.98;;
71753;SDS011;59593;51.716;7.016;2023-10-13T02:33:31;19.98;;;14.77;;
71753;SDS011;59593;51.716;7.016;2023-10-13T02:36:00;19.77;;;14.52;;
71753;SDS011;59593;51.716;7.016;2023-10-13T02:38:30;19.98;;;14.25;;
71753;SDS011;59593;51.716;7.016;2023-10-13T02:41:13;18.70;;;14.43;;
71753;SDS011;59593;51.716;7.016;2023-10-13T02:43:54;19.52;;;15.23;;
71753;SDS011;59593;51.716;7.016;2023-10-13T02:46:20;19.23;;;15.23;;
71753;SDS011;59593;51.716;7.016;2023-10-13T02:48:50;19.17;;;14.18;;
71753;SDS011;59593;51.716;7.016;2023-10-13T02:51:18;19.33;;;14.55;;
71753;SDS011;59593;51.716;7.016;2023-10-13T02:54:00;21.60;;;14.40;;
71753;SDS011;59593;51.716;7.016;2023-10-13T02:56:28;17.40;;;13.52;;
71753;SDS011;59593;51.716;7.016;2023-10-13T02:58:57;19.13;;;13.70;;
71753;SDS011;59593;51.716;7.016;2023-10-13T03:04:55;23.10;;;14.50;;
71753;SDS011;59593;51.716;7.016;2023-10-13T03:07:27;21.65;;;13.77;;
71753;SDS011;59593;51.716;7.016;2023-10-13T03:09:57;20.83;;;13.93;;
71753;SDS011;59593;51.716;7.016;2023-10-13T03:12:25;22.67;;;13.48;;
71753;SDS011;59593;51.716;7.016;2023-10-13T03:14:51;19.17;;;14.38;;
71753;SDS011;59593;51.716;7.016;2023-10-13T03:17:22;21.75;;;14.02;;
71753;SDS011;59593;51.716;7.016;2023-10-13T03:19:59;17.98;;;13.93;;
71753;SDS011;59593;51.716;7.016;2023-10-13T03:22:25;16.60;;;14.38;;
71753;SDS011;59593;51.716;7.016;2023-10-13T03:24:58;18.00;;;14.55;;
71753;SDS011;59593;51.716;7.016;2023-10-13T03:27:31;21.98;;;15.32;;
71753;SDS011;59593;51.716;7.016;2023-10-13T03:30:05;20.90;;;15.45;;
71753;SDS011;59593;51.716;7.016;2023-10-13T03:32:38;19.40;;;14.30;;
71753;SDS011;59593;51.716;7.016;2023-10-13T03:35:08;21.15;;;15.60;;
71753;SDS011;59593;51.716;7.016;2023-10-13T03:37:52;20.77;;;13.15;;
71753;SDS011;59593;51.716;7.016;2023-10-13T03:40:22;18.52;;;13.80;;
71753;SDS011;59593;51.716;7.016;2023-10-13T03:49:13;19.77;;;14.20;;
71753;SDS011;59593;51.716;7.016;2023-10-13T03:51:47;18.98;;;14.38;;
71753;SDS011;59593;51.716;7.016;2023-10-13T03:54:13;20.50;;;14.07;;
71753;SDS011;59593;51.716;7.016;2023-10-13T03:56:41;23.10;;;14.73;;
71753;SDS011;59593;51.716;7.016;2023-10-13T03:59:10;19.45;;;13.93;;
71753;SDS011;59593;51.716;7.016;2023-10-13T04:01:46;19.98;;;13.57;;
71753;SDS011;59593;51.716;7.016;2023-10-13T04:04:18;17.98;;;14.40;;
71753;SDS011;59593;51.716;7.016;2023-10-13T04:10:35;17.33;;;12.35;;
71753;SDS011;59593;51.716;7.016;2023-10-13T04:13:17;17.38;;;12.50;;
71753;SDS011;59593;51.716;7.016;2023-10-13T04:16:06;19.45;;;13.18;;
71753;SDS011;59593;51.716;7.016;2023-10-13T04:22:10;18.20;;;14.60;;
71753;SDS011;59593;51.716;7.016;2023-10-13T04:24:47;19.35;;;14.75;;
71753;SDS011;59593;51.716;7.016;2023-10-13T04:27:25;18.88;;;14.32;;
71753;SDS011;59593;51.716;7.016;2023-10-13T04:30:19;19.90;;;14.55;;
71753;SDS011;59593;51.716;7.016;2023-10-13T04:36:25;20.88;;;15.13;;
71753;SDS011;59593;51.716;7.016;2023-10-13T04:38:51;20.95;;;16.65;;
71753;SDS011;59593;51.716;7.016;2023-10-13T04:41:28;20.02;;;15.60;;
71753;SDS011;59593;51.716;7.016;2023-10-13T04:44:06;20.05;;;15.15;;
71753;SDS011;59593;51.716;7.016;2023-10-13T04:46:55;19.60;;;15.80;;
71753;SDS011;59593;51.716;7.016;2023-10-13T04:49:24;22.13;;;17.35;;
71753;SDS011;59593;51.716;7.016;2023-10-13T04:51:58;23.30;;;18.52;;
71753;SDS011;59593;51.716;7.016;2023-10-13T04:54:35;20.75;;;17.95;;
71753;SDS011;59593;51.716;7.016;2023-10-13T04:57:17;20.40;;;17.20;;
71753;SDS011;59593;51.716;7.016;2023-10-13T04:59:47;22.55;;;17.48;;
71753;SDS011;59593;51.716;7.016;2023-10-13T05:02:32;22.00;;;16.35;;
71753;SDS011;59593;51.716;7.016;2023-10-13T05:05:07;22.55;;;16.23;;
71753;SDS011;59593;51.716;7.016;2023-10-13T05:07:50;23.33;;;15.73;;
71753;SDS011;59593;51.716;7.016;2023-10-13T05:10:36;17.63;;;15.20;;
71753;SDS011;59593;51.716;7.016;2023-10-13T05:20:03;20.27;;;15.15;;
71753;SDS011;59593;51.716;7.016;2023-10-13T05:26:13;18.65;;;13.10;;
71753;SDS011;59593;51.716;7.016;2023-10-13T05:28:59;15.95;;;13.30;;
71753;SDS011;59593;51.716;7.016;2023-10-13T05:31:43;15.38;;;11.90;;
71753;SDS011;59593;51.716;7.016;2023-10-13T05:34:27;18.70;;;12.73;;
71753;SDS011;59593;51.716;7.016;2023-10-13T05:37:11;19.20;;;12.25;;
71753;SDS011;59593;51.716;7.016;2023-10-13T05:39:56;17.73;;;12.43;;
71753;SDS011;59593;51.716;7.016;2023-10-13T05:42:40;15.77;;;12.80;;
71753;SDS011;59593;51.716;7.016;2023-10-13T05:48:46;17.40;;;12.57;;
71753;SDS011;59593;51.716;7.016;2023-10-13T05:51:39;18.38;;;12.10;;
71753;SDS011;59593;51.716;7.016;2023-10-13T05:54:04;17.42;;;12.82;;
71753;SDS011;59593;51.716;7.016;2023-10-13T06:00:02;16.90;;;13.18;;
71753;SDS011;59593;51.716;7.016;2023-10-13T06:02:46;22.38;;;13.48;;
71753;SDS011;59593;51.716;7.016;2023-10-13T06:05:30;13.98;;;12.27;;
71753;SDS011;59593;51.716;7.016;2023-10-13T06:08:16;15.50;;;13.00;;
71753;SDS011;59593;51.716;7.016;2023-10-13T06:11:01;15.25;;;12.05;;
71753;SDS011;59593;51.716;7.016;2023-10-13T06:17:08;14.13;;;10.88;;
71753;SDS011;59593;51.716;7.016;2023-10-13T06:19:52;18.70;;;11.20;;
71753;SDS011;59593;51.716;7.016;2023-10-13T06:22:36;13.05;;;10.32;;
71753;SDS011;59593;51.716;7.016;2023-10-13T06:25:20;15.75;;;11.27;;
71753;SDS011;59593;51.716;7.016;2023-10-13T06:28:04;11.80;;;10.55;;
71753;SDS011;59593;51.716;7.016;2023-10-13T06:30:58;13.82;;;9.82;;
71753;SDS011;59593;51.716;7.016;2023-10-13T06:33:26;14.25;;;10.40;;
71753;SDS011;59593;51.716;7.016;2023-10-13T06:35:57;13.77;;;9.38;;
71753;SDS011;59593;51.716;7.016;2023-10-13T06:38:23;11.85;;;9.80;;
71753;SDS011;59593;51.716;7.016;2023-10-13T06:44:11;13.40;;;8.88;;
71753;SDS011;59593;51.716;7.016;2023-10-13T06:46:40;15.27;;;9.13;;
71753;SDS011;59593;51.716;7.016;2023-10-13T06:49:06;12.45;;;10.20;;
71753;SDS011;59593;51.716;7.016;2023-10-13T06:54:57;11.18;;;9.65;;
71753;SDS011;59593;51.716;7.016;2023-10-13T06:57:28;14.23;;;10.23;;
71753;SDS011;59593;51.716;7.016;2023-10-13T06:59:58;17.17;;;11.18;;
71753;SDS011;59593;51.716;7.016;2023-10-13T07:02:24;14.63;;;11.23;;
71753;SDS011;59593;51.716;7.016;2023-10-13T07:04:58;15.65;;;11.73;;
71753;SDS011;59593;51.716;7.016;2023-10-13T07:07:32;18.00;;;12.50;;
71753;SDS011;59593;51.716;7.016;2023-10-13T07:10:01;18.25;;;13.25;;
71753;SDS011;59593;51.716;7.016;2023-10-13T07:12:26;17.08;;;13.77;;
71753;SDS011;59593;51.716;7.016;2023-10-13T07:14:58;18.80;;;14.27;;
71753;SDS011;59593;51.716;7.016;2023-10-13T07:17:36;18.20;;;13.50;;
71753;SDS011;59593;51.716;7.016;2023-10-13T07:20:06;20.60;;;12.23;;
71753;SDS011;59593;51.716;7.016;2023-10-13T07:22:48;15.77;;;11.10;;
71753;SDS011;59593;51.716;7.016;2023-10-13T07:25:36;19.80;;;9.88;;
71753;SDS011;59593;51.716;7.016;2023-10-13T07:28:05;16.42;;;9.57;;
71753;SDS011;59593;51.716;7.016;2023-10-13T07:33:59;14.75;;;8.25;;
71753;SDS011;59593;51.716;7.016;2023-10-13T07:36:32;16.67;;;8.20;;
71753;SDS011;59593;51.716;7.016;2023-10-13T07:39:04;18.75;;;7.75;;
71753;SDS011;59593;51.716;7.016;2023-10-13T07:41:49;15.93;;;7.20;;
71753;SDS011;59593;51.716;7.016;2023-10-13T07:47:41;13.38;;;6.78;;
71753;SDS011;59593;51.716;7.016;2023-10-13T07:50:07;15.88;;;6.80;;
71753;SDS011;59593;51.716;7.016;2023-10-13T07:52:34;20.38;;;7.97;;
71753;SDS011;59593;51.716;7.016;2023-10-13T07:55:06;17.40;;;7.10;;
71753;SDS011;59593;51.716;7.016;2023-10-13T07:57:39;15.95;;;7.28;;
71753;SDS011;59593;51.716;7.016;2023-10-13T08:00:20;24.10;;;7.18;;
71753;SDS011;59593;51.716;7.016;2023-10-13T08:03:05;17.08;;;6.57;;
71753;SDS011;59593;51.716;7.016;2023-10-13T08:05:51;19.63;;;7.47;;
71753;SDS011;59593;51.716;7.016;2023-10-13T08:11:51;15.00;;;6.50;;
71753;SDS011;59593;51.716;7.016;2023-10-13T08:14:19;15.48;;;7.03;;
71753;SDS011;59593;51.716;7.016;2023-10-13T08:16:48;14.23;;;7.28;;
71753;SDS011;59593;51.716;7.016;2023-10-13T08:19:31;18.05;;;7.25;;
71753;SDS011;59593;51.716;7.016;2023-10-13T08:25:27;16.45;;;7.20;;
71753;SDS011;59593;51.716;7.016;2023-10-13T08:28:12;15.00;;;6.95;;
71753;SDS011;59593;51.716;7.016;2023-10-13T08:30:56;14.25;;;6.63;;
71753;SDS011;59593;51.716;7.016;2023-10-13T08:33:21;15.85;;;7.25;;
71753;SDS011;59593;51.716;7.016;2023-10-13T08:39:11;11.18;;;6.28;;
71753;SDS011;59593;51.716;7.016;2023-10-13T08:41:56;12.73;;;6.70;;
71753;SDS011;59593;51.716;7.016;2023-10-13T08:44:37;15.30;;;7.00;;
71753;SDS011;59593;51.716;7.016;2023-10-13T08:47:11;17.42;;;6.80;;
71753;SDS011;59593;51.716;7.016;2023-10-13T08:49:48;13.48;;;6.70;;
71753;SDS011;59593;51.716;7.016;2023-10-13T08:52:22;13.63;;;6.30;;
71753;SDS011;59593;51.716;7.016;2023-10-13T08:58:28;14.07;;;6.47;;
71753;SDS011;59593;51.716;7.016;2023-10-13T09:01:14;19.23;;;6.75;;
71753;SDS011;59593;51.716;7.016;2023-10-13T09:03:59;11.90;;;6.07;;
71753;SDS011;59593;51.716;7.016;2023-10-13T09:10:06;13.98;;;5.90;;
71753;SDS011;59593;51.716;7.016;2023-10-13T09:12:57;13.27;;;6.28;;
71753;SDS011;59593;51.716;7.016;2023-10-13T09:18:48;17.10;;;5.75;;
71753;SDS011;59593;51.716;7.016;2023-10-13T09:21:17;14.65;;;5.85;;
71753;SDS011;59593;51.716;7.016;2023-10-13T09:24:01;13.32;;;6.10;;
71753;SDS011;59593;51.716;7.016;2023-10-13T09:26:46;17.73;;;6.43;;
71753;SDS011;59593;51.716;7.016;2023-10-13T09:29:18;17.00;;;6.53;;
71753;SDS011;59593;51.716;7.016;2023-10-13T09:31:45;13.57;;;6.47;;
71753;SDS011;59593;51.716;7.016;2023-10-13T09:34:20;14.68;;;6.20;;
71753;SDS011;59593;51.716;7.016;2023-10-13T09:40:10;13.30;;;6.03;;
71753;SDS011;59593;51.716;7.016;2023-10-13T09:42:50;16.30;;;5.90;;
71753;SDS011;59593;51.716;7.016;2023-10-13T09:45:16;15.23;;;6.03;;
71753;SDS011;59593;51.716;7.016;2023-10-13T09:47:43;14.38;;;6.20;;
71753;SDS011;59593;51.716;7.016;2023-10-13T09:50:17;12.82;;;6.22;;
71753;SDS011;59593;51.716;7.016;2023-10-13T09:52:49;14.88;;;6.18;;
71753;SDS011;59593;51.716;7.016;2023-10-13T09:55:29;12.93;;;6.15;;
71753;SDS011;59593;51.716;7.016;2023-10-13T09:58:02;13.55;;;6.65;;
71753;SDS011;59593;51.716;7.016;2023-10-13T10:04:10;16.70;;;6.05;;
71753;SDS011;59593;51.716;7.016;2023-10-13T10:06:51;17.77;;;6.63;;
71753;SDS011;59593;51.716;7.016;2023-10-13T10:09:17;12.32;;;6.13;;
71753;SDS011;59593;51.716;7.016;2023-10-13T10:17:54;17.90;;;6.70;;
71753;SDS011;59593;51.716;7.016;2023-10-13T10:20:30;18.20;;;6.38;;
71753;SDS011;59593;51.716;7.016;2023-10-13T10:23:24;17.27;;;6.13;;
71753;SDS011;59593;51.716;7.016;2023-10-13T10:29:15;14.63;;;6.30;;
71753;SDS011;59593;51.716;7.016;2023-10-13T10:31:41;18.08;;;6.70;;
71753;SDS011;59593;51.716;7.016;2023-10-13T10:34:19;20.25;;;6.68;;
71753;SDS011;59593;51.716;7.016;2023-10-13T10:36:55;15.52;;;6.45;;
71753;SDS011;59593;51.716;7.016;2023-10-13T10:39:35;14.95;;;6.32;;
71753;SDS011;59593;51.716;7.016;2023-10-13T10:42:13;15.90;;;6.32;;
71753;SDS011;59593;51.716;7.016;2023-10-13T10:44:40;11.50;;;6.32;;
71753;SDS011;59593;51.716;7.016;2023-10-13T10:50:31;12.32;;;7.03;;
71753;SDS011;59593;51.716;7.016;2023-10-13T10:53:06;14.77;;;6.60;;
71753;SDS011;59593;51.716;7.016;2023-10-13T10:55:35;11.82;;;6.75;;
71753;SDS011;59593;51.716;7.016;2023-10-13T10:58:06;20.25;;;6.95;;
71753;SDS011;59593;51.716;7.016;2023-10-13T11:06:51;16.80;;;6.78;;
71753;SDS011;59593;51.716;7.016;2023-10-13T11:12:53;16.33;;;7.45;;
71753;SDS011;59593;51.716;7.016;2023-10-13T11:15:43;14.98;;;7.25;;
71753;SDS011;59593;51.716;7.016;2023-10-13T11:18:15;14.73;;;7.53;;
71753;SDS011;59593;51.716;7.016;2023-10-13T11:20:55;14.00;;;7.43;;
71753;SDS011;59593;51.716;7.016;2023-10-13T11:23:21;16.95;;;7.85;;
71753;SDS011;59593;51.716;7.016;2023-10-13T11:25:57;13.13;;;7.40;;
71753;SDS011;59593;51.716;7.016;2023-10-13T11:28:27;16.83;;;7.20;;
71753;SDS011;59593;51.716;7.016;2023-10-13T11:30:53;20.08;;;7.40;;
71753;SDS011;59593;51.716;7.016;2023-10-13T11:33:43;15.77;;;7.85;;
71753;SDS011;59593;51.716;7.016;2023-10-13T11:36:11;21.27;;;7.88;;
71753;SDS011;59593;51.716;7.016;2023-10-13T11:38:47;13.43;;;6.45;;
71753;SDS011;59593;51.716;7.016;2023-10-13T11:44:38;15.68;;;6.82;;
71753;SDS011;59593;51.716;7.016;2023-10-13T11:47:08;17.60;;;7.05;;
71753;SDS011;59593;51.716;7.016;2023-10-13T11:49:56;11.32;;;7.05;;
71753;SDS011;59593;51.716;7.016;2023-10-13T11:52:24;15.23;;;7.20;;
71753;SDS011;59593;51.716;7.016;2023-10-13T11:54:52;15.52;;;7.93;;
71753;SDS011;59593;51.716;7.016;2023-10-13T11:57:18;16.38;;;7.05;;
71753;SDS011;59593;51.716;7.016;2023-10-13T11:59:45;15.23;;;7.20;;
71753;SDS011;59593;51.716;7.016;2023-10-13T12:02:18;14.82;;;7.35;;
71753;SDS011;59593;51.716;7.016;2023-10-13T12:04:51;17.10;;;7.20;;
71753;SDS011;59593;51.716;7.016;2023-10-13T12:07:19;14.02;;;7.05;;
71753;SDS011;59593;51.716;7.016;2023-10-13T12:13:29;13.38;;;6.47;;
71753;SDS011;59593;51.716;7.016;2023-10-13T12:16:02;14.32;;;6.63;;
71753;SDS011;59593;51.716;7.016;2023-10-13T12:18:33;18.88;;;7.15;;
71753;SDS011;59593;51.716;7.016;2023-10-13T12:21:07;13.63;;;6.47;;
71753;SDS011;59593;51.716;7.016;2023-10-13T12:26:28;15.65;;;6.63;;
71753;SDS011;59593;51.716;7.016;2023-10-13T12:29:00;16.75;;;6.45;;
71753;SDS011;59593;51.716;7.016;2023-10-13T12:31:32;16.73;;;6.72;;
71753;SDS011;59593;51.716;7.016;2023-10-13T12:37:26;13.20;;;6.70;;
71753;SDS011;59593;51.716;7.016;2023-10-13T12:49:35;19.88;;;6.63;;
71753;SDS011;59593;51.716;7.016;2023-10-13T12:52:23;16.58;;;6.93;;
71753;SDS011;59593;51.716;7.016;2023-10-13T13:01:40;18.70;;;6.68;;
71753;SDS011;59593;51.716;7.016;2023-10-13T13:04:09;22.45;;;7.10;;
71753;SDS011;59593;51.716;7.016;2023-10-13T13:06:50;19.35;;;7.45;;
71753;SDS011;59593;51.716;7.016;2023-10-13T13:09:16;21.13;;;7.28;;
71753;SDS011;59593;51.716;7.016;2023-10-13T13:11:51;22.77;;;7.45;;
71753;SDS011;59593;51.716;7.016;2023-10-13T13:17:45;20.52;;;7.53;;
71753;SDS011;59593;51.716;7.016;2023-10-13T13:20:11;17.08;;;7.45;;
71753;SDS011;59593;51.716;7.016;2023-10-13T13:26:14;18.77;;;7.18;;
71753;SDS011;59593;51.716;7.016;2023-10-13T13:28:45;21.98;;;8.00;;
71753;SDS011;59593;51.716;7.016;2023-10-13T13:31:19;25.05;;;7.45;;
71753;SDS011;59593;51.716;7.016;2023-10-13T13:33:51;20.25;;;7.00;;
71753;SDS011;59593;51.716;7.016;2023-10-13T13:36:17;23.85;;;7.00;;
71753;SDS011;59593;51.716;7.016;2023-10-13T13:38:46;20.30;;;6.78;;
71753;SDS011;59593;51.716;7.016;2023-10-13T13:41:14;21.45;;;6.68;;
71753;SDS011;59593;51.716;7.016;2023-10-13T13:43:47;24.13;;;6.78;;
71753;SDS011;59593;51.716;7.016;2023-10-13T13:46:19;15.95;;;6.50;;
71753;SDS011;59593;51.716;7.016;2023-10-13T13:48:50;17.73;;;6.85;;
71753;SDS011;59593;51.716;7.016;2023-10-13T13:51:22;26.88;;;6.55;;
71753;SDS011;59593;51.716;7.016;2023-10-13T13:53:52;18.60;;;6.32;;
71753;SDS011;59593;51.716;7.016;2023-10-13T13:56:19;18.80;;;5.95;;
71753;SDS011;59593;51.716;7.016;2023-10-13T13:58:50;20.58;;;6.32;;
71753;SDS011;59593;51.716;7.016;2023-10-13T14:01:16;24.02;;;6.10;;
71753;SDS011;59593;51.716;7.016;2023-10-13T14:03:54;21.77;;;7.32;;
71753;SDS011;59593;51.716;7.016;2023-10-13T14:06:28;19.20;;;7.07;;
71753;SDS011;59593;51.716;7.016;2023-10-13T14:08:56;22.95;;;6.63;;
71753;SDS011;59593;51.716;7.016;2023-10-13T14:11:39;20.02;;;6.53;;
71753;SDS011;59593;51.716;7.016;2023-10-13T14:14:05;20.05;;;6.05;;
71753;SDS011;59593;51.716;7.016;2023-10-13T14:16:50;19.67;;;6.50;;
71753;SDS011;59593;51.716;7.016;2023-10-13T14:19:18;21.27;;;6.50;;
71753;SDS011;59593;51.716;7.016;2023-10-13T14:21:58;17.45;;;5.93;;
71753;SDS011;59593;51.716;7.016;2023-10-13T14:24:31;15.98;;;5.63;;
71753;SDS011;59593;51.716;7.016;2023-10-13T14:27:00;20.63;;;6.47;;
71753;SDS011;59593;51.716;7.016;2023-10-13T14:29:34;14.88;;;5.82;;
71753;SDS011;59593;51.716;7.016;2023-10-13T14:32:07;19.13;;;5.95;;
71753;SDS011;59593;51.716;7.016;2023-10-13T14:34:40;22.13;;;6.25;;
71753;SDS011;59593;51.716;7.016;2023-10-13T14:37:07;19.65;;;5.85;;
71753;SDS011;59593;51.716;7.016;2023-10-13T14:39:33;16.98;;;6.47;;
71753;SDS011;59593;51.716;7.016;2023-10-13T14:42:03;21.13;;;6.30;;
71753;SDS011;59593;51.716;7.016;2023-10-13T14:44:31;16.38;;;5.85;;
71753;SDS011;59593;51.716;7.016;2023-10-13T14:47:03;17.55;;;6.50;;
71753;SDS011;59593;51.716;7.016;2023-10-13T14:49:36;16.00;;;5.85;;
71753;SDS011;59593;51.716;7.016;2023-10-13T14:52:01;19.17;;;6.22;;
71753;SDS011;59593;51.716;7.016;2023-10-13T14:54:28;15.73;;;5.53;;
71753;SDS011;59593;51.716;7.016;2023-10-13T14:57:00;22.17;;;6.82;;
71753;SDS011;59593;51.716;7.016;2023-10-13T15:02:48;16.45;;;5.65;;
71753;SDS011;59593;51.716;7.016;2023-10-13T15:05:16;12.07;;;5.53;;
71753;SDS011;59593;51.716;7.016;2023-10-13T15:07:42;15.70;;;5.78;;
71753;SDS011;59593;51.716;7.016;2023-10-13T15:13:31;15.43;;;5.88;;
71753;SDS011;59593;51.716;7.016;2023-10-13T15:15:57;19.13;;;6.13;;
71753;SDS011;59593;51.716;7.016;2023-10-13T15:18:22;18.90;;;5.95;;
71753;SDS011;59593;51.716;7.016;2023-10-13T15:24:10;18.33;;;5.72;;
71753;SDS011;59593;51.716;7.016;2023-10-13T15:26:39;19.20;;;6.35;;
71753;SDS011;59593;51.716;7.016;2023-10-13T15:29:07;19.02;;;6.57;;
71753;SDS011;59593;51.716;7.016;2023-10-13T15:31:37;17.33;;;6.13;;
71753;SDS011;59593;51.716;7.016;2023-10-13T15:37:27;14.93;;;5.88;;
71753;SDS011;59593;51.716;7.016;2023-10-13T15:39:53;13.27;;;5.40;;
71753;SDS011;59593;51.716;7.016;2023-10-13T15:42:20;17.17;;;5.75;;
71753;SDS011;59593;51.716;7.016;2023-10-13T15:48:08;16.98;;;5.68;;
71753;SDS011;59593;51.716;7.016;2023-10-13T15:50:37;15.65;;;5.63;;
71753;SDS011;59593;51.716;7.016;2023-10-13T15:53:06;18.65;;;6.18;;
71753;SDS011;59593;51.716;7.016;2023-10-13T15:58:56;11.63;;;5.45;;
71753;SDS011;59593;51.716;7.016;2023-10-13T16:01:21;16.95;;;6.10;;
71753;SDS011;59593;51.716;7.016;2023-10-13T16:03:48;14.57;;;5.97;;
71753;SDS011;59593;51.716;7.016;2023-10-13T16:06:18;15.88;;;5.80;;
71753;SDS011;59593;51.716;7.016;2023-10-13T16:08:44;19.77;;;5.88;;
71753;SDS011;59593;51.716;7.016;2023-10-13T16:11:11;15.35;;;5.30;;
71753;SDS011;59593;51.716;7.016;2023-10-13T16:13:41;12.63;;;5.35;;
71753;SDS011;59593;51.716;7.016;2023-10-13T16:16:14;12.07;;;5.90;;
71753;SDS011;59593;51.716;7.016;2023-10-13T16:18:41;18.63;;;6.30;;
71753;SDS011;59593;51.716;7.016;2023-10-13T16:21:11;20.88;;;7.20;;
71753;SDS011;59593;51.716;7.016;2023-10-13T16:26:59;21.85;;;7.40;;
71753;SDS011;59593;51.716;7.016;2023-10-13T16:29:28;16.67;;;6.22;;
71753;SDS011;59593;51.716;7.016;2023-10-13T16:31:56;16.42;;;6.30;;
71753;SDS011;59593;51.716;7.016;2023-10-13T16:34:24;14.15;;;6.57;;
71753;SDS011;59593;51.716;7.016;2023-10-13T16:36:50;14.88;;;5.70;;
71753;SDS011;59593;51.716;7.016;2023-10-13T16:39:20;13.02;;;5.82;;
71753;SDS011;59593;51.716;7.016;2023-10-13T16:45:09;19.05;;;6.22;;
71753;SDS011;59593;51.716;7.016;2023-10-13T16:47:48;15.38;;;5.57;;
71753;SDS011;59593;51.716;7.016;2023-10-13T16:50:18;11.68;;;5.65;;
71753;SDS011;59593;51.716;7.016;2023-10-13T16:52:46;17.63;;;5.60;;
71753;SDS011;59593;51.716;7.016;2023-10-13T16:55:16;14.00;;;5.35;;
71753;SDS011;59593;51.716;7.016;2023-10-13T16:57:46;12.00;;;5.40;;
71753;SDS011;59593;51.716;7.016;2023-10-13T17:00:18;12.63;;;5.80;;
71753;SDS011;59593;51.716;7.016;2023-10-13T17:02:50;11.77;;;5.32;;
71753;SDS011;59593;51.716;7.016;2023-10-13T17:05:17;17.98;;;6.82;;
71753;SDS011;59593;51.716;7.016;2023-10-13T17:07:46;13.80;;;5.88;;
71753;SDS011;59593;51.716;7.016;2023-10-13T17:10:13;11.23;;;5.55;;
71753;SDS011;59593;51.716;7.016;2023-10-13T17:12:42;22.30;;;6.55;;
71753;SDS011;59593;51.716;7.016;2023-10-13T17:15:09;14.93;;;5.65;;
71753;SDS011;59593;51.716;7.016;2023-10-13T17:24:34;21.98;;;6.90;;
71753;SDS011;59593;51.716;7.016;2023-10-13T17:27:08;13.70;;;6.32;;
71753;SDS011;59593;51.716;7.016;2023-10-13T17:32:33;17.02;;;6.38;;
71753;SDS011;59593;51.716;7.016;2023-10-13T17:34:59;16.85;;;6.22;;
71753;SDS011;59593;51.716;7.016;2023-10-13T17:37:31;9.85;;;6.03;;
71753;SDS011;59593;51.716;7.016;2023-10-13T17:43:29;14.73;;;6.35;;
71753;SDS011;59593;51.716;7.016;2023-10-13T17:45:55;17.83;;;6.63;;
71753;SDS011;59593;51.716;7.016;2023-10-13T17:48:22;15.07;;;6.80;;
71753;SDS011;59593;51.716;7.016;2023-10-13T17:50:48;16.05;;;6.90;;
71753;SDS011;59593;51.716;7.016;2023-10-13T17:53:13;20.73;;;7.15;;
71753;SDS011;59593;51.716;7.016;2023-10-13T17:59:03;17.67;;;6.85;;
71753;SDS011;59593;51.716;7.016;2023-10-13T18:01:31;14.90;;;6.55;;
71753;SDS011;59593;51.716;7.016;2023-10-13T18:03:57;16.42;;;6.43;;
71753;SDS011;59593;51.716;7.016;2023-10-13T18:06:37;15.40;;;7.07;;
71753;SDS011;59593;51.716;7.016;2023-10-13T18:09:02;13.90;;;6.75;;
71753;SDS011;59593;51.716;7.016;2023-10-13T18:11:30;16.63;;;6.97;;
71753;SDS011;59593;51.716;7.016;2023-10-13T18:14:00;13.40;;;6.60;;
71753;SDS011;59593;51.716;7.016;2023-10-13T18:16:25;15.70;;;6.30;;
71753;SDS011;59593;51.716;7.016;2023-10-13T18:18:51;12.20;;;7.40;;
71753;SDS011;59593;51.716;7.016;2023-10-13T18:21:20;11.90;;;6.75;;
71753;SDS011;59593;51.716;7.016;2023-10-13T18:23:47;12.40;;;6.72;;